createdAt,value
2022-09-02T00:01:57.646Z,0.60
2022-09-02T00:04:28.333Z,0.78
2022-09-02T00:06:58.164Z,0.60
2022-09-02T00:09:28.573Z,0.60
2022-09-02T00:11:58.563Z,0.83
2022-09-02T00:14:31.537Z,0.50
2022-09-02T00:17:01.741Z,0.50
2022-09-02T00:19:32.426Z,0.60
2022-09-02T00:22:03.124Z,0.60
2022-09-02T00:24:33.197Z,1.00
2022-09-02T00:27:03.027Z,0.70
2022-09-02T00:29:33.536Z,0.60
2022-09-02T00:32:03.456Z,0.70
2022-09-02T00:34:33.662Z,0.60
2022-09-02T00:37:03.431Z,0.60
2022-09-02T00:39:34.184Z,0.40
2022-09-02T00:42:06.947Z,0.60
2022-09-02T00:44:37.045Z,0.80
2022-09-02T00:47:06.800Z,0.50
2022-09-02T00:49:39.329Z,0.50
2022-09-02T00:52:19.587Z,0.50
2022-09-02T00:54:55.168Z,0.77
2022-09-02T00:57:27.691Z,0.70
2022-09-02T01:00:19.647Z,0.57
2022-09-02T01:03:01.370Z,0.55
2022-09-02T01:05:34.168Z,0.50
2022-09-02T01:08:09.561Z,0.70
2022-09-02T01:10:40.949Z,0.60
2022-09-02T01:13:13.828Z,0.50
2022-09-02T01:15:47.982Z,0.60
2022-09-02T01:18:24.167Z,0.57
2022-09-02T01:20:53.933Z,0.57
2022-09-02T01:23:23.831Z,0.70
2022-09-02T01:25:55.116Z,0.53
2022-09-02T01:28:25.686Z,0.60
2022-09-02T01:30:56.400Z,0.50
2022-09-02T01:33:26.327Z,0.40
2022-09-02T01:35:56.095Z,0.73
2022-09-02T01:38:26.514Z,0.60
2022-09-02T01:40:56.350Z,0.80
2022-09-02T01:43:29.780Z,0.50
2022-09-02T01:46:00.610Z,0.50
2022-09-02T01:48:31.709Z,0.50
2022-09-02T01:51:04.869Z,0.50
2022-09-02T01:53:35.195Z,0.60
2022-09-02T01:56:06.743Z,0.80
2022-09-02T01:58:36.754Z,0.50
2022-09-02T02:01:07.846Z,0.80
2022-09-02T02:03:39.788Z,0.67
2022-09-02T02:06:16.517Z,0.60
2022-09-02T02:08:47.326Z,1.00
2022-09-02T02:11:21.925Z,0.80
2022-09-02T02:13:53.319Z,1.00
2022-09-02T02:16:23.565Z,0.37
2022-09-02T02:18:53.131Z,0.65
2022-09-02T02:21:22.911Z,0.60
2022-09-02T02:23:53.574Z,0.50
2022-09-02T02:26:23.422Z,1.00
2022-09-02T02:28:53.191Z,0.70
2022-09-02T02:31:24.636Z,0.67
2022-09-02T02:33:54.867Z,0.70
2022-09-02T02:36:24.705Z,0.90
2022-09-02T02:38:54.528Z,0.80
2022-09-02T02:41:24.294Z,0.77
2022-09-02T02:43:54.359Z,0.83
2022-09-02T02:46:24.652Z,1.00
2022-09-02T02:48:54.353Z,0.80
2022-09-02T02:51:24.120Z,0.60
2022-09-02T02:53:58.218Z,0.73
2022-09-02T02:56:25.570Z,0.70
2022-09-02T02:58:55.722Z,0.60
2022-09-02T03:01:25.612Z,0.70
2022-09-02T03:03:55.870Z,0.90
2022-09-02T03:06:26.612Z,0.80
2022-09-02T03:08:57.553Z,0.93
2022-09-02T03:11:28.349Z,1.07
2022-09-02T03:13:59.310Z,0.68
2022-09-02T03:16:29.208Z,0.83
2022-09-02T03:18:59.066Z,0.67
2022-09-02T03:21:28.856Z,0.60
2022-09-02T03:24:00.309Z,0.90
2022-09-02T03:26:30.064Z,0.90
2022-09-02T03:29:00.763Z,0.60
2022-09-02T03:31:30.882Z,0.60
2022-09-02T03:34:00.924Z,0.80
2022-09-02T03:36:36.377Z,0.90
2022-09-02T03:39:09.856Z,0.57
2022-09-02T03:41:41.755Z,0.80
2022-09-02T03:44:12.152Z,0.60
2022-09-02T03:46:42.848Z,0.70
2022-09-02T03:49:13.122Z,0.80
2022-09-02T03:51:44.267Z,0.60
2022-09-02T03:54:14.169Z,0.80
2022-09-02T03:56:44.199Z,0.87
2022-09-02T03:59:15.874Z,0.80
2022-09-02T04:01:45.922Z,0.60
2022-09-02T04:04:19.733Z,0.83
2022-09-02T04:06:50.303Z,0.73
2022-09-02T04:09:20.057Z,0.90
2022-09-02T04:11:51.056Z,0.70
2022-09-02T04:14:20.976Z,0.47
2022-09-02T04:16:50.830Z,0.60
2022-09-02T04:19:20.649Z,0.60
2022-09-02T04:21:51.531Z,0.77
2022-09-02T04:24:21.559Z,0.50
2022-09-02T04:26:51.831Z,0.67
2022-09-02T04:29:21.761Z,0.50
2022-09-02T04:31:52.101Z,0.67
2022-09-02T04:34:21.956Z,1.00
2022-09-02T04:36:52.847Z,0.80
2022-09-02T04:39:23.029Z,0.80
2022-09-02T04:41:54.542Z,0.80
2022-09-02T04:44:26.544Z,0.80
2022-09-02T04:46:56.846Z,0.85
2022-09-02T04:49:27.219Z,1.00
2022-09-02T04:51:56.980Z,0.80
2022-09-02T04:54:27.786Z,0.88
2022-09-02T04:56:59.257Z,0.83
2022-09-02T04:59:30.011Z,1.00
2022-09-02T05:02:08.569Z,1.05
2022-09-02T05:04:39.076Z,1.00
2022-09-02T05:07:11.817Z,0.80
2022-09-02T05:09:44.364Z,0.90
2022-09-02T05:12:15.034Z,0.75
2022-09-02T05:14:49.482Z,0.67
2022-09-02T05:17:20.782Z,1.20
2022-09-02T05:19:50.893Z,0.73
2022-09-02T05:22:21.062Z,1.00
2022-09-02T05:24:50.920Z,0.93
2022-09-02T05:27:21.287Z,0.60
2022-09-02T05:29:59.482Z,0.70
2022-09-02T05:32:33.318Z,0.90
2022-09-02T05:35:02.118Z,0.70
2022-09-02T05:37:33.559Z,0.90
2022-09-02T05:40:05.903Z,0.80
2022-09-02T05:42:39.695Z,0.80
2022-09-02T05:45:10.218Z,0.80
2022-09-02T05:47:40.069Z,0.90
2022-09-02T05:50:14.332Z,1.30
2022-09-02T05:52:45.550Z,0.90
2022-09-02T05:55:15.627Z,0.90
2022-09-02T05:57:46.847Z,0.80
2022-09-02T06:00:18.178Z,0.70
2022-09-02T06:02:49.971Z,0.83
2022-09-02T06:05:21.381Z,0.97
2022-09-02T06:07:52.864Z,1.10
2022-09-02T06:10:23.020Z,0.60
2022-09-02T06:12:52.855Z,1.63
2022-09-02T06:15:25.827Z,0.80
2022-09-02T06:17:58.793Z,1.10
2022-09-02T06:20:30.216Z,0.83
2022-09-02T06:23:00.057Z,1.83
2022-09-02T06:25:29.982Z,0.80
2022-09-02T06:28:05.160Z,1.00
2022-09-02T06:30:32.922Z,1.20
2022-09-02T06:33:04.036Z,1.10
2022-09-02T06:35:43.043Z,0.80
2022-09-02T06:38:14.525Z,1.00
2022-09-02T06:40:50.643Z,0.73
2022-09-02T06:43:22.740Z,0.90
2022-09-02T06:45:57.100Z,0.90
2022-09-02T06:48:27.228Z,0.93
2022-09-02T06:50:58.356Z,0.93
2022-09-02T06:53:29.435Z,1.00
2022-09-02T06:55:59.274Z,0.93
2022-09-02T06:58:29.178Z,1.00
2022-09-02T07:00:59.183Z,1.10
2022-09-02T07:03:46.674Z,1.10
2022-09-02T07:06:16.992Z,1.37
2022-09-02T07:08:48.404Z,1.33
2022-09-02T07:11:24.157Z,1.40
2022-09-02T07:13:55.241Z,0.87
2022-09-02T07:16:27.209Z,1.00
2022-09-02T07:19:00.396Z,1.10
2022-09-02T07:21:31.275Z,0.80
2022-09-02T07:24:02.618Z,1.00
2022-09-02T07:26:32.460Z,0.93
2022-09-02T07:29:02.302Z,0.73
2022-09-02T07:31:32.077Z,1.20
2022-09-02T07:34:03.297Z,1.10
2022-09-02T07:36:34.891Z,0.93
2022-09-02T07:39:07.384Z,1.63
2022-09-02T07:41:39.152Z,1.07
2022-09-02T07:44:10.296Z,1.10
2022-09-02T07:46:40.194Z,1.07
2022-09-02T07:49:12.544Z,1.03
2022-09-02T07:51:46.232Z,1.50
2022-09-02T07:54:18.770Z,1.00
2022-09-02T07:56:49.756Z,1.07
2022-09-02T07:59:21.540Z,1.10
2022-09-02T08:01:53.804Z,0.93
2022-09-02T08:04:25.048Z,1.00
2022-09-02T08:06:56.328Z,1.47
2022-09-02T08:09:26.169Z,1.20
2022-09-02T08:11:55.934Z,1.30
2022-09-02T08:14:28.706Z,1.13
2022-09-02T08:16:59.161Z,1.03
2022-09-02T08:19:30.383Z,1.10
2022-09-02T08:22:06.295Z,1.50
2022-09-02T08:24:36.126Z,1.02
2022-09-02T08:27:06.434Z,1.10
2022-09-02T08:29:36.199Z,1.43
2022-09-02T08:32:07.848Z,1.27
2022-09-02T08:34:37.895Z,1.75
2022-09-02T08:37:08.130Z,1.30
2022-09-02T08:39:38.199Z,1.55
2022-09-02T08:42:15.306Z,1.20
2022-09-02T08:44:46.794Z,1.47
2022-09-02T08:47:22.882Z,1.13
2022-09-02T08:49:55.434Z,1.33
2022-09-02T08:52:33.841Z,1.20
2022-09-02T08:55:03.761Z,1.47
2022-09-02T08:57:33.859Z,1.20
2022-09-02T09:00:04.542Z,1.40
2022-09-02T09:02:47.577Z,1.60
2022-09-02T09:05:28.900Z,1.30
2022-09-02T09:08:16.974Z,1.30
2022-09-02T09:10:53.102Z,1.50
2022-09-02T09:13:45.620Z,1.03
2022-09-02T09:16:30.321Z,1.40
2022-09-02T09:19:25.296Z,1.57
2022-09-02T09:21:57.575Z,1.50
2022-09-02T09:24:32.934Z,1.30
2022-09-02T09:27:05.073Z,1.30
2022-09-02T09:29:36.322Z,1.27
2022-09-02T09:32:09.727Z,1.57
2022-09-02T09:34:59.690Z,1.43
2022-09-02T09:37:36.107Z,1.37
2022-09-02T09:40:24.324Z,1.43
2022-09-02T09:43:07.938Z,1.47
2022-09-02T09:45:46.535Z,1.67
2022-09-02T09:48:26.894Z,1.55
2022-09-02T09:50:59.713Z,1.70
2022-09-02T09:53:32.981Z,1.50
2022-09-02T09:56:17.485Z,1.50
2022-09-02T09:58:49.373Z,1.73
2022-09-02T10:01:28.008Z,2.07
2022-09-02T10:04:02.418Z,1.53
2022-09-02T10:06:35.239Z,1.10
2022-09-02T10:09:08.046Z,1.80
2022-09-02T10:11:38.751Z,1.60
2022-09-02T10:14:12.544Z,1.77
2022-09-02T10:16:51.246Z,1.50
2022-09-02T10:19:40.282Z,1.70
2022-09-02T10:22:58.406Z,1.62
2022-09-02T10:25:15.472Z,1.60
2022-09-02T10:27:54.042Z,1.70
2022-09-02T10:30:25.369Z,1.65
2022-09-02T10:33:01.394Z,1.60
2022-09-02T10:35:48.926Z,1.40
2022-09-02T10:38:24.641Z,1.42
2022-09-02T10:40:59.760Z,1.53
2022-09-02T10:43:44.423Z,1.47
2022-09-02T10:46:17.259Z,1.60
2022-09-02T10:48:59.533Z,1.83
2022-09-02T10:51:41.068Z,1.70
2022-09-02T10:54:24.774Z,1.30
2022-09-02T10:57:03.040Z,1.70
2022-09-02T10:59:38.555Z,1.60
2022-09-02T11:02:27.113Z,1.67
2022-09-02T11:05:18.028Z,1.97
2022-09-02T11:08:20.810Z,1.60
2022-09-02T11:10:59.658Z,1.60
2022-09-02T11:13:54.876Z,1.80
2022-09-02T11:16:27.765Z,1.65
2022-09-02T11:19:12.124Z,1.47
2022-09-02T11:21:47.574Z,1.30
2022-09-02T11:24:20.391Z,1.40
2022-09-02T11:27:32.270Z,1.22
2022-09-02T11:30:08.104Z,1.12
2022-09-02T11:32:46.149Z,1.30
2022-09-02T11:35:27.873Z,1.00
2022-09-02T11:38:06.695Z,1.50
2022-09-02T11:40:39.930Z,1.73
2022-09-02T11:43:34.022Z,1.22
2022-09-02T11:46:22.818Z,1.17
2022-09-02T11:49:06.906Z,1.20
2022-09-02T11:51:50.240Z,1.40
2022-09-02T11:54:21.841Z,1.40
2022-09-02T11:57:01.608Z,1.30
2022-09-02T11:59:50.641Z,1.50
2022-09-02T12:02:48.253Z,1.10
2022-09-02T12:05:33.565Z,1.37
2022-09-02T12:08:22.945Z,1.50
2022-09-02T12:11:01.014Z,1.47
2022-09-02T12:13:44.839Z,1.40
2022-09-02T12:16:19.798Z,1.30
2022-09-02T12:18:58.516Z,1.17
2022-09-02T12:21:31.394Z,1.40
2022-09-02T12:24:04.379Z,1.30
2022-09-02T12:26:42.949Z,1.50
2022-09-02T12:29:22.638Z,1.75
2022-09-02T12:31:55.022Z,1.83
2022-09-02T12:34:30.397Z,1.75
2022-09-02T12:37:04.100Z,1.73
2022-09-02T12:39:36.916Z,1.43
2022-09-02T12:42:28.874Z,1.58
2022-09-02T12:45:16.505Z,1.43
2022-09-02T12:47:54.969Z,1.43
2022-09-02T12:50:31.663Z,1.30
2022-09-02T12:53:21.131Z,1.30
2022-09-02T12:58:45.473Z,1.00
2022-09-02T13:01:30.919Z,1.00
2022-09-02T13:04:12.895Z,1.07
2022-09-02T13:07:06.264Z,1.00
2022-09-02T13:09:45.054Z,0.97
2022-09-02T13:12:27.395Z,1.02
2022-09-02T13:15:11.688Z,0.90
2022-09-02T13:18:05.219Z,0.90
2022-09-02T13:20:40.346Z,0.90
2022-09-02T13:23:31.213Z,0.77
2022-09-02T13:26:08.363Z,0.80
2022-09-02T13:28:52.766Z,1.00
2022-09-02T13:31:27.774Z,0.87
2022-09-02T13:34:05.452Z,1.10
2022-09-02T13:36:37.484Z,1.00
2022-09-02T13:39:21.394Z,1.03
2022-09-02T13:41:51.318Z,1.13
2022-09-02T13:44:30.066Z,0.90
2022-09-02T13:47:08.064Z,1.10
2022-09-02T13:49:40.610Z,1.07
2022-09-02T13:52:18.074Z,1.02
2022-09-02T13:54:52.091Z,1.20
2022-09-02T13:57:25.843Z,1.20
2022-09-02T13:59:57.669Z,0.90
2022-09-02T14:02:30.704Z,1.00
2022-09-02T14:05:18.396Z,1.17
2022-09-02T14:07:54.401Z,1.10
2022-09-02T14:10:28.240Z,0.90
2022-09-02T14:12:59.117Z,0.90
2022-09-02T14:15:32.013Z,1.00
2022-09-02T14:18:18.048Z,1.25
2022-09-02T14:21:06.777Z,1.00
2022-09-02T14:23:39.580Z,1.20
2022-09-02T14:26:11.463Z,1.00
2022-09-02T14:28:41.309Z,1.03
2022-09-02T14:31:18.586Z,1.00
2022-09-02T14:33:46.509Z,1.40
2022-09-02T14:36:22.091Z,1.27
2022-09-02T14:38:55.460Z,1.17
2022-09-02T14:41:27.372Z,1.27
2022-09-02T14:44:02.963Z,1.10
2022-09-02T14:46:39.174Z,0.70
2022-09-02T14:49:20.930Z,0.80
2022-09-02T14:51:59.402Z,0.90
2022-09-02T14:54:38.243Z,0.90
2022-09-02T14:57:27.856Z,0.90
2022-09-02T15:00:01.893Z,1.20
2022-09-02T15:02:36.322Z,1.30
2022-09-02T15:05:10.886Z,1.42
2022-09-02T15:07:40.772Z,0.90
2022-09-02T15:10:10.867Z,1.50
2022-09-02T15:12:46.304Z,1.40
2022-09-02T15:15:17.147Z,1.00
2022-09-02T15:17:46.926Z,1.10
2022-09-02T15:20:17.468Z,1.25
2022-09-02T15:22:47.223Z,1.30
2022-09-02T15:25:17.441Z,1.27
2022-09-02T15:27:47.282Z,0.93
2022-09-02T15:30:17.235Z,1.75
2022-09-02T15:32:46.720Z,1.20
2022-09-02T15:35:16.893Z,1.15
2022-09-02T15:37:48.243Z,1.00
2022-09-02T15:40:17.781Z,1.57
2022-09-02T15:42:47.551Z,0.90
2022-09-02T15:45:17.710Z,1.30
2022-09-02T15:47:47.200Z,1.10
2022-09-02T15:50:17.917Z,1.40
2022-09-02T15:52:49.393Z,1.20
2022-09-02T15:55:21.787Z,1.40
2022-09-02T15:57:51.017Z,1.30
2022-09-02T16:00:21.142Z,1.10
2022-09-02T16:02:51.375Z,1.17
2022-09-02T16:05:21.371Z,1.20
2022-09-02T16:07:52.086Z,0.97
2022-09-02T16:10:21.749Z,0.90
2022-09-02T16:12:51.521Z,0.90
2022-09-02T16:15:21.083Z,0.87
2022-09-02T16:17:52.412Z,1.30
2022-09-02T16:20:23.472Z,1.70
2022-09-02T16:22:53.887Z,1.03
2022-09-02T16:25:24.313Z,1.10
2022-09-02T16:27:55.552Z,0.90
2022-09-02T16:30:25.687Z,1.20
2022-09-02T16:32:56.588Z,1.00
2022-09-02T16:35:26.204Z,1.10
2022-09-02T16:37:57.402Z,1.10
2022-09-02T16:40:27.165Z,1.17
2022-09-02T16:42:56.945Z,1.10
2022-09-02T16:45:26.699Z,0.90
2022-09-02T16:47:56.497Z,1.30
2022-09-02T16:50:26.248Z,1.10
2022-09-02T16:52:56.025Z,1.40
2022-09-02T16:55:25.791Z,1.15
2022-09-02T16:57:55.634Z,1.17
2022-09-02T17:00:25.862Z,0.95
2022-09-02T17:02:55.756Z,1.00
2022-09-02T17:05:25.588Z,0.95
2022-09-02T17:07:56.997Z,0.97
2022-09-02T17:10:26.761Z,0.73
2022-09-02T17:12:57.235Z,1.00
2022-09-02T17:15:27.090Z,0.80
2022-09-02T17:17:57.613Z,1.30
2022-09-02T17:20:27.855Z,1.10
2022-09-02T17:22:57.614Z,1.13
2022-09-02T17:25:27.584Z,1.20
2022-09-02T17:27:57.312Z,1.10
2022-09-02T17:30:27.096Z,0.70
2022-09-02T17:32:58.305Z,0.97
2022-09-02T17:35:28.059Z,1.00
2022-09-02T17:37:57.892Z,1.17
2022-09-02T17:40:45.210Z,0.70
2022-09-02T17:43:15.236Z,1.20
2022-09-02T17:45:46.863Z,1.10
2022-09-02T17:48:36.929Z,0.90
2022-09-02T17:50:48.350Z,1.10
2022-09-02T17:53:18.372Z,1.00
2022-09-02T17:55:50.279Z,1.27
2022-09-02T17:58:22.207Z,0.90
2022-09-02T18:00:55.074Z,0.80
2022-09-02T18:03:34.591Z,1.10
2022-09-02T18:06:07.444Z,1.00
2022-09-02T18:08:46.198Z,1.27
2022-09-02T18:11:16.037Z,1.10
2022-09-02T18:14:13.703Z,1.20
2022-09-02T18:17:06.967Z,1.00
2022-09-02T18:19:48.637Z,0.93
2022-09-02T18:22:27.084Z,1.00
2022-09-02T18:24:59.885Z,1.23
2022-09-02T18:27:47.905Z,1.10
2022-09-02T18:30:26.066Z,1.07
2022-09-02T18:33:16.577Z,1.20
2022-09-02T18:36:08.756Z,1.20
2022-09-02T18:38:41.957Z,1.20
2022-09-02T18:41:31.213Z,1.17
2022-09-02T18:44:10.703Z,0.97
2022-09-02T18:46:52.902Z,1.20
2022-09-02T18:49:24.819Z,1.13
2022-09-02T18:51:57.781Z,1.30
2022-09-02T18:54:33.102Z,1.25
2022-09-02T18:57:06.152Z,1.30
2022-09-02T18:59:57.297Z,1.25
2022-09-02T19:02:36.094Z,1.00
2022-09-02T19:05:11.843Z,1.20
2022-09-02T19:08:02.594Z,1.20
2022-09-02T19:10:32.222Z,1.20
2022-09-02T19:13:02.437Z,1.30
2022-09-02T19:15:33.344Z,1.13
2022-09-02T19:18:05.072Z,1.33
2022-09-02T19:20:37.308Z,1.17
2022-09-02T19:23:08.411Z,1.10
2022-09-02T19:25:38.724Z,1.20
2022-09-02T19:28:10.513Z,1.17
2022-09-02T19:30:40.438Z,1.20
2022-09-02T19:33:13.742Z,1.50
2022-09-02T19:35:49.706Z,1.20
2022-09-02T19:38:19.563Z,1.47
2022-09-02T19:40:49.398Z,1.37
2022-09-02T19:43:20.132Z,1.37
2022-09-02T19:45:51.308Z,1.30
2022-09-02T19:48:21.434Z,1.00
2022-09-02T19:50:51.266Z,0.97
2022-09-02T19:53:28.695Z,1.20
2022-09-02T19:55:59.489Z,1.20
2022-09-02T19:58:29.173Z,1.37
2022-09-02T20:00:59.282Z,1.00
2022-09-02T20:03:29.814Z,1.10
2022-09-02T20:05:59.816Z,1.00
2022-09-02T20:08:30.803Z,1.20
2022-09-02T20:11:02.807Z,1.10
2022-09-02T20:13:41.057Z,1.47
2022-09-02T20:16:10.424Z,1.07
2022-09-02T20:18:44.396Z,1.20
2022-09-02T20:21:28.925Z,1.43
2022-09-02T20:24:13.415Z,1.40
2022-09-02T20:26:58.987Z,1.33
2022-09-02T20:29:40.326Z,1.13
2022-09-02T20:32:17.313Z,1.25
2022-09-02T20:34:50.152Z,0.80
2022-09-02T20:37:55.579Z,1.27
2022-09-02T20:40:41.764Z,1.37
2022-09-02T20:43:15.090Z,1.10
2022-09-02T20:45:59.120Z,1.40
2022-09-02T20:48:34.600Z,1.15
2022-09-02T20:51:23.450Z,1.10
2022-09-02T20:54:04.851Z,0.93
2022-09-02T20:56:37.421Z,1.45
2022-09-02T20:59:12.969Z,1.73
2022-09-02T21:01:45.442Z,1.17
2022-09-02T21:04:28.896Z,1.54
2022-09-02T21:07:09.050Z,1.22
2022-09-02T21:09:41.601Z,0.85
2022-09-02T21:12:23.279Z,0.90
2022-09-02T21:15:27.485Z,1.20
2022-09-02T21:18:23.572Z,1.20
2022-09-02T21:21:21.595Z,0.80
2022-09-02T21:24:00.127Z,1.60
2022-09-02T21:26:38.813Z,1.45
2022-09-02T21:29:32.906Z,1.17
2022-09-02T21:32:11.586Z,1.07
2022-09-02T21:34:59.059Z,1.07
2022-09-02T21:37:31.913Z,0.98
2022-09-02T21:40:08.022Z,1.20
2022-09-02T21:42:59.604Z,1.40
2022-09-02T21:45:44.189Z,1.20
2022-09-02T21:48:29.291Z,1.02
2022-09-02T21:51:04.892Z,1.20
2022-09-02T21:53:44.993Z,1.20
2022-09-02T21:56:23.657Z,1.30
2022-09-02T21:59:06.634Z,1.20
2022-09-02T22:01:57.488Z,1.07
2022-09-02T22:04:42.191Z,1.40
2022-09-02T22:07:21.911Z,1.10
2022-09-02T22:09:55.356Z,0.73
2022-09-02T22:12:26.276Z,1.32
2022-09-02T22:15:01.959Z,1.03
2022-09-02T22:17:53.146Z,1.00
2022-09-02T22:20:31.270Z,1.30
2022-09-02T22:23:06.368Z,1.10
2022-09-02T22:25:38.096Z,0.70
2022-09-02T22:28:10.610Z,1.10
2022-09-02T22:30:43.412Z,0.97
2022-09-02T22:33:16.152Z,1.20
2022-09-02T22:36:04.161Z,1.07
2022-09-02T22:38:41.443Z,1.20
2022-09-02T22:41:18.363Z,1.00
2022-09-02T22:43:53.678Z,0.83
2022-09-02T22:46:55.782Z,1.00
2022-09-02T22:49:44.594Z,1.07
2022-09-02T22:52:49.125Z,0.95
2022-09-02T22:55:21.631Z,1.10
2022-09-02T22:58:09.089Z,0.90
2022-09-02T23:00:46.479Z,0.90
2022-09-02T23:03:21.980Z,1.10
2022-09-02T23:06:13.520Z,1.00
2022-09-02T23:08:45.869Z,1.20
2022-09-02T23:11:20.321Z,0.90
2022-09-02T23:13:58.641Z,0.97
2022-09-02T23:16:44.038Z,1.17
2022-09-02T23:19:16.879Z,1.03
2022-09-02T23:21:54.283Z,1.05
2022-09-02T23:24:45.225Z,0.98
2022-09-02T23:27:34.204Z,1.20
2022-09-02T23:30:07.127Z,0.90
2022-09-02T23:32:44.570Z,1.20
2022-09-02T23:35:21.868Z,1.00
2022-09-02T23:38:17.087Z,1.00
2022-09-02T23:40:51.645Z,1.10
2022-09-02T23:43:22.001Z,1.00
2022-09-02T23:45:54.651Z,1.00
2022-09-02T23:48:30.143Z,1.10
2022-09-02T23:51:04.580Z,0.83
2022-09-02T23:53:58.150Z,1.20
2022-09-02T23:57:03.645Z,1.40
